Terminal Aerodrome Forecast
Issued by NWS Boston, MA

Home | Current Version | Previous Version | Text Only | Print | Product List | Glossary Off
Versions: 1 2 3 4 5 6 7 8 9 10 11 12 13 14 15 16 17 18 19 20 21 22 23 24 25
000 FTUS41 KBOX 181728 TAFBDL TAF KBDL 181728Z 1818/1924 27004KT P6SM SKC FM190100 VRB03KT P6SM SKC FM190900 00000KT 6SM BR FEW008 FM191300 21005KT P6SM SKC=

USA.gov is the U.S. government's official web portal to all federal, state and local government web resources and services.